sensor_id;sensor_type;location;lat;lon;timestamp;pressure;altitude;pressure_sealevel;temperature;humidity
49529;BME280;35423;37.320;-121.762;2022-10-16T00:01:10;99520.65;;;41.28;11.10
49529;BME280;35423;37.320;-121.762;2022-10-16T00:03:36;99520.34;;;40.48;11.30
49529;BME280;35423;37.320;-121.762;2022-10-16T00:06:07;99520.49;;;40.73;11.42
49529;BME280;35423;37.320;-121.762;2022-10-16T00:08:35;99520.96;;;39.92;11.59
49529;BME280;35423;37.320;-121.762;2022-10-16T00:11:09;99520.56;;;40.59;11.63
49529;BME280;35423;37.320;-121.762;2022-10-16T00:13:40;99524.63;;;40.13;11.88
49529;BME280;35423;37.320;-121.762;2022-10-16T00:16:10;99526.61;;;39.94;11.95
49529;BME280;35423;37.320;-121.762;2022-10-16T00:18:37;99526.58;;;40.00;12.03
49529;BME280;35423;37.320;-121.762;2022-10-16T00:21:04;99528.57;;;39.30;12.42
49529;BME280;35423;37.320;-121.762;2022-10-16T00:23:28;99529.18;;;38.18;12.61
49529;BME280;35423;37.320;-121.762;2022-10-16T00:25:57;99528.54;;;39.02;12.56
49529;BME280;35423;37.320;-121.762;2022-10-16T00:28:23;99529.61;;;38.48;12.74
49529;BME280;35423;37.320;-121.762;2022-10-16T00:30:48;99529.13;;;37.97;13.21
49529;BME280;35423;37.320;-121.762;2022-10-16T00:33:14;99529.40;;;37.37;13.60
49529;BME280;35423;37.320;-121.762;2022-10-16T00:35:46;99533.51;;;37.10;14.01
49529;BME280;35423;37.320;-121.762;2022-10-16T00:38:11;99538.47;;;36.27;14.61
49529;BME280;35423;37.320;-121.762;2022-10-16T00:40:40;99544.00;;;35.43;15.04
49529;BME280;35423;37.320;-121.762;2022-10-16T00:43:31;99546.81;;;35.14;15.33
49529;BME280;35423;37.320;-121.762;2022-10-16T00:45:33;99549.33;;;34.39;15.59
49529;BME280;35423;37.320;-121.762;2022-10-16T00:48:10;99550.97;;;34.97;15.86
49529;BME280;35423;37.320;-121.762;2022-10-16T00:50:38;99548.45;;;34.56;16.21
49529;BME280;35423;37.320;-121.762;2022-10-16T00:53:05;99549.60;;;33.89;16.59
49529;BME280;35423;37.320;-121.762;2022-10-16T00:55:32;99553.92;;;32.72;16.95
49529;BME280;35423;37.320;-121.762;2022-10-16T00:58:02;99555.89;;;33.46;17.18
49529;BME280;35423;37.320;-121.762;2022-10-16T01:00:28;99558.58;;;32.52;17.42
49529;BME280;35423;37.320;-121.762;2022-10-16T01:02:57;99557.27;;;32.97;17.67
49529;BME280;35423;37.320;-121.762;2022-10-16T01:05:24;99560.56;;;32.67;17.82
49529;BME280;35423;37.320;-121.762;2022-10-16T01:07:55;99563.41;;;32.61;18.16
49529;BME280;35423;37.320;-121.762;2022-10-16T01:10:26;99565.82;;;32.50;18.39
49529;BME280;35423;37.320;-121.762;2022-10-16T01:12:50;99570.00;;;31.91;18.68
49529;BME280;35423;37.320;-121.762;2022-10-16T01:15:18;99574.95;;;31.49;18.88
49529;BME280;35423;37.320;-121.762;2022-10-16T01:17:45;99576.43;;;31.39;18.95
49529;BME280;35423;37.320;-121.762;2022-10-16T01:20:16;99577.88;;;31.72;19.02
49529;BME280;35423;37.320;-121.762;2022-10-16T01:22:47;99582.97;;;30.94;19.23
49529;BME280;35423;37.320;-121.762;2022-10-16T01:25:08;99587.49;;;31.45;19.38
49529;BME280;35423;37.320;-121.762;2022-10-16T01:27:33;99595.35;;;31.00;19.69
49529;BME280;35423;37.320;-121.762;2022-10-16T01:29:58;99596.48;;;30.70;19.99
49529;BME280;35423;37.320;-121.762;2022-10-16T01:32:28;99599.49;;;30.38;20.28
49529;BME280;35423;37.320;-121.762;2022-10-16T01:34:52;99599.76;;;30.76;20.46
49529;BME280;35423;37.320;-121.762;2022-10-16T01:37:27;99604.95;;;30.21;20.52
49529;BME280;35423;37.320;-121.762;2022-10-16T01:39:47;99610.08;;;29.82;20.71
49529;BME280;35423;37.320;-121.762;2022-10-16T01:42:15;99615.28;;;30.12;20.72
49529;BME280;35423;37.320;-121.762;2022-10-16T01:44:47;99619.43;;;30.15;20.94
49529;BME280;35423;37.320;-121.762;2022-10-16T01:47:14;99620.78;;;29.94;21.00
49529;BME280;35423;37.320;-121.762;2022-10-16T01:49:39;99621.97;;;29.14;21.33
49529;BME280;35423;37.320;-121.762;2022-10-16T01:52:07;99623.79;;;29.35;21.32
49529;BME280;35423;37.320;-121.762;2022-10-16T01:54:30;99625.12;;;29.48;21.11
49529;BME280;35423;37.320;-121.762;2022-10-16T01:56:55;99624.74;;;29.87;21.04
49529;BME280;35423;37.320;-121.762;2022-10-16T01:59:25;99625.54;;;29.72;21.18
49529;BME280;35423;37.320;-121.762;2022-10-16T02:01:52;99624.21;;;29.49;21.22
49529;BME280;35423;37.320;-121.762;2022-10-16T02:04:18;99623.36;;;30.05;21.32
49529;BME280;35423;37.320;-121.762;2022-10-16T02:06:46;99625.40;;;29.59;21.50
49529;BME280;35423;37.320;-121.762;2022-10-16T02:09:19;99621.60;;;29.60;21.52
49529;BME280;35423;37.320;-121.762;2022-10-16T02:11:45;99619.70;;;29.43;21.51
49529;BME280;35423;37.320;-121.762;2022-10-16T02:14:16;99620.14;;;29.96;21.52
49529;BME280;35423;37.320;-121.762;2022-10-16T02:16:50;99622.84;;;29.49;21.47
49529;BME280;35423;37.320;-121.762;2022-10-16T02:19:18;99621.74;;;29.82;21.43
49529;BME280;35423;37.320;-121.762;2022-10-16T02:21:47;99621.24;;;29.58;21.51
49529;BME280;35423;37.320;-121.762;2022-10-16T02:24:14;99620.20;;;29.94;21.59
49529;BME280;35423;37.320;-121.762;2022-10-16T02:26:43;99622.18;;;29.88;21.58
49529;BME280;35423;37.320;-121.762;2022-10-16T02:29:12;99624.52;;;29.96;21.68
49529;BME280;35423;37.320;-121.762;2022-10-16T02:31:34;99629.80;;;28.76;21.88
49529;BME280;35423;37.320;-121.762;2022-10-16T02:34:00;99632.37;;;29.47;21.93
49529;BME280;35423;37.320;-121.762;2022-10-16T02:36:24;99633.84;;;29.14;22.03
49529;BME280;35423;37.320;-121.762;2022-10-16T02:38:49;99638.50;;;29.38;21.97
49529;BME280;35423;37.320;-121.762;2022-10-16T02:41:17;99636.10;;;29.20;22.08
49529;BME280;35423;37.320;-121.762;2022-10-16T02:43:48;99635.36;;;29.35;22.13
49529;BME280;35423;37.320;-121.762;2022-10-16T02:46:15;99636.25;;;29.66;22.19
49529;BME280;35423;37.320;-121.762;2022-10-16T02:48:42;99637.70;;;29.31;22.47
49529;BME280;35423;37.320;-121.762;2022-10-16T02:51:11;99642.43;;;29.13;22.60
49529;BME280;35423;37.320;-121.762;2022-10-16T02:53:41;99646.69;;;28.73;22.60
49529;BME280;35423;37.320;-121.762;2022-10-16T02:56:09;99650.20;;;28.71;22.60
49529;BME280;35423;37.320;-121.762;2022-10-16T02:58:36;99650.82;;;28.62;22.64
49529;BME280;35423;37.320;-121.762;2022-10-16T03:01:06;99653.03;;;28.90;22.81
49529;BME280;35423;37.320;-121.762;2022-10-16T03:03:38;99654.11;;;28.63;22.96
49529;BME280;35423;37.320;-121.762;2022-10-16T03:06:04;99654.43;;;28.77;23.09
49529;BME280;35423;37.320;-121.762;2022-10-16T03:08:31;99655.62;;;27.45;23.19
49529;BME280;35423;37.320;-121.762;2022-10-16T03:10:57;99656.44;;;28.35;23.24
49529;BME280;35423;37.320;-121.762;2022-10-16T03:13:26;99656.52;;;27.85;23.31
49529;BME280;35423;37.320;-121.762;2022-10-16T03:15:52;99659.33;;;28.27;23.38
49529;BME280;35423;37.320;-121.762;2022-10-16T03:18:24;99663.64;;;27.97;23.40
49529;BME280;35423;37.320;-121.762;2022-10-16T03:20:49;99662.25;;;28.06;23.45
49529;BME280;35423;37.320;-121.762;2022-10-16T03:23:16;99662.56;;;28.19;23.67
49529;BME280;35423;37.320;-121.762;2022-10-16T03:25:41;99662.47;;;27.86;23.64
49529;BME280;35423;37.320;-121.762;2022-10-16T03:28:09;99663.61;;;27.97;23.70
49529;BME280;35423;37.320;-121.762;2022-10-16T03:30:40;99663.22;;;27.16;23.73
49529;BME280;35423;37.320;-121.762;2022-10-16T03:33:07;99665.19;;;27.63;23.71
49529;BME280;35423;37.320;-121.762;2022-10-16T03:35:32;99667.68;;;27.06;23.68
49529;BME280;35423;37.320;-121.762;2022-10-16T03:38:02;99672.47;;;27.98;23.72
49529;BME280;35423;37.320;-121.762;2022-10-16T03:40:27;99675.30;;;27.26;23.73
49529;BME280;35423;37.320;-121.762;2022-10-16T03:42:54;99681.43;;;27.58;23.81
49529;BME280;35423;37.320;-121.762;2022-10-16T03:45:24;99681.65;;;27.72;23.76
49529;BME280;35423;37.320;-121.762;2022-10-16T03:47:50;99685.74;;;27.49;23.95
49529;BME280;35423;37.320;-121.762;2022-10-16T03:50:15;99686.23;;;27.45;24.01
49529;BME280;35423;37.320;-121.762;2022-10-16T03:52:41;99687.29;;;27.60;24.12
49529;BME280;35423;37.320;-121.762;2022-10-16T03:55:09;99690.54;;;27.66;24.10
49529;BME280;35423;37.320;-121.762;2022-10-16T03:57:33;99694.37;;;27.27;24.14
49529;BME280;35423;37.320;-121.762;2022-10-16T04:00:01;99698.29;;;27.74;24.15
49529;BME280;35423;37.320;-121.762;2022-10-16T04:02:28;99700.24;;;26.56;24.38
49529;BME280;35423;37.320;-121.762;2022-10-16T04:04:54;99700.05;;;27.27;24.38
49529;BME280;35423;37.320;-121.762;2022-10-16T04:07:19;99700.82;;;27.40;24.23
49529;BME280;35423;37.320;-121.762;2022-10-16T04:09:45;99702.12;;;26.96;24.37
49529;BME280;35423;37.320;-121.762;2022-10-16T04:12:11;99703.95;;;27.43;24.36
49529;BME280;35423;37.320;-121.762;2022-10-16T04:14:42;99705.88;;;26.84;24.41
49529;BME280;35423;37.320;-121.762;2022-10-16T04:17:08;99706.40;;;27.28;24.48
49529;BME280;35423;37.320;-121.762;2022-10-16T04:19:38;99708.50;;;27.54;24.70
49529;BME280;35423;37.320;-121.762;2022-10-16T04:22:03;99705.72;;;26.96;24.77
49529;BME280;35423;37.320;-121.762;2022-10-16T04:24:29;99704.75;;;26.49;24.78
49529;BME280;35423;37.320;-121.762;2022-10-16T04:26:55;99704.99;;;27.11;24.71
49529;BME280;35423;37.320;-121.762;2022-10-16T04:29:27;99706.85;;;27.00;24.78
49529;BME280;35423;37.320;-121.762;2022-10-16T04:31:55;99706.53;;;27.06;24.79
49529;BME280;35423;37.320;-121.762;2022-10-16T04:34:25;99706.75;;;26.77;25.01
49529;BME280;35423;37.320;-121.762;2022-10-16T04:36:51;99710.28;;;26.76;25.07
49529;BME280;35423;37.320;-121.762;2022-10-16T04:39:17;99713.71;;;26.58;25.17
49529;BME280;35423;37.320;-121.762;2022-10-16T04:41:42;99717.08;;;26.57;25.26
49529;BME280;35423;37.320;-121.762;2022-10-16T04:44:11;99720.63;;;27.09;25.28
49529;BME280;35423;37.320;-121.762;2022-10-16T04:46:39;99722.29;;;26.29;25.38
49529;BME280;35423;37.320;-121.762;2022-10-16T04:49:05;99725.59;;;26.86;25.48
49529;BME280;35423;37.320;-121.762;2022-10-16T04:51:30;99726.16;;;25.84;25.57
49529;BME280;35423;37.320;-121.762;2022-10-16T04:53:55;99729.76;;;26.22;25.72
49529;BME280;35423;37.320;-121.762;2022-10-16T04:56:23;99734.55;;;26.69;25.76
49529;BME280;35423;37.320;-121.762;2022-10-16T04:58:49;99733.16;;;26.31;25.67
49529;BME280;35423;37.320;-121.762;2022-10-16T05:01:15;99731.83;;;26.79;25.67
49529;BME280;35423;37.320;-121.762;2022-10-16T05:03:41;99732.63;;;26.36;25.59
49529;BME280;35423;37.320;-121.762;2022-10-16T05:06:08;99733.93;;;26.68;25.76
49529;BME280;35423;37.320;-121.762;2022-10-16T05:08:33;99736.52;;;26.07;25.86
49529;BME280;35423;37.320;-121.762;2022-10-16T05:10:59;99738.15;;;26.35;25.83
49529;BME280;35423;37.320;-121.762;2022-10-16T05:13:25;99737.07;;;26.03;25.88
49529;BME280;35423;37.320;-121.762;2022-10-16T05:15:51;99743.32;;;26.58;25.85
49529;BME280;35423;37.320;-121.762;2022-10-16T05:18:17;99745.44;;;26.50;25.94
49529;BME280;35423;37.320;-121.762;2022-10-16T05:20:44;99742.48;;;26.65;25.83
49529;BME280;35423;37.320;-121.762;2022-10-16T05:23:13;99745.66;;;26.52;25.99
49529;BME280;35423;37.320;-121.762;2022-10-16T05:25:54;99745.41;;;26.07;26.10
49529;BME280;35423;37.320;-121.762;2022-10-16T05:28:12;99744.49;;;26.37;26.12
49529;BME280;35423;37.320;-121.762;2022-10-16T05:30:43;99747.09;;;26.47;26.04
49529;BME280;35423;37.320;-121.762;2022-10-16T05:33:13;99747.44;;;26.36;26.17
49529;BME280;35423;37.320;-121.762;2022-10-16T05:35:39;99750.80;;;26.72;26.28
49529;BME280;35423;37.320;-121.762;2022-10-16T05:38:05;99751.47;;;26.47;26.59
49529;BME280;35423;37.320;-121.762;2022-10-16T05:40:35;99751.87;;;25.34;26.70
49529;BME280;35423;37.320;-121.762;2022-10-16T05:43:01;99755.08;;;25.83;26.71
49529;BME280;35423;37.320;-121.762;2022-10-16T05:45:29;99755.02;;;25.40;26.68
49529;BME280;35423;37.320;-121.762;2022-10-16T05:48:01;99760.51;;;26.30;26.59
49529;BME280;35423;37.320;-121.762;2022-10-16T05:50:32;99762.39;;;25.75;26.64
49529;BME280;35423;37.320;-121.762;2022-10-16T05:52:53;99762.11;;;26.49;26.67
49529;BME280;35423;37.320;-121.762;2022-10-16T05:55:18;99758.33;;;25.96;26.72
49529;BME280;35423;37.320;-121.762;2022-10-16T05:57:44;99759.12;;;26.08;26.65
49529;BME280;35423;37.320;-121.762;2022-10-16T06:00:13;99760.78;;;26.73;26.37
49529;BME280;35423;37.320;-121.762;2022-10-16T06:02:48;99760.25;;;26.34;26.62
49529;BME280;35423;37.320;-121.762;2022-10-16T06:05:14;99760.70;;;25.89;26.80
49529;BME280;35423;37.320;-121.762;2022-10-16T06:07:40;99761.76;;;25.81;27.12
49529;BME280;35423;37.320;-121.762;2022-10-16T06:10:09;99763.19;;;25.65;27.33
49529;BME280;35423;37.320;-121.762;2022-10-16T06:12:36;99765.56;;;25.27;27.28
49529;BME280;35423;37.320;-121.762;2022-10-16T06:15:03;99761.27;;;25.77;27.26
49529;BME280;35423;37.320;-121.762;2022-10-16T06:17:28;99760.17;;;25.24;27.06
49529;BME280;35423;37.320;-121.762;2022-10-16T06:19:54;99756.37;;;25.62;27.13
49529;BME280;35423;37.320;-121.762;2022-10-16T06:22:20;99752.14;;;25.81;27.01
49529;BME280;35423;37.320;-121.762;2022-10-16T06:24:46;99746.15;;;25.44;27.12
49529;BME280;35423;37.320;-121.762;2022-10-16T06:27:12;99747.88;;;25.70;27.31
49529;BME280;35423;37.320;-121.762;2022-10-16T06:29:38;99742.51;;;25.42;27.15
49529;BME280;35423;37.320;-121.762;2022-10-16T06:32:08;99741.70;;;25.81;27.28
49529;BME280;35423;37.320;-121.762;2022-10-16T06:34:34;99740.14;;;24.77;27.39
49529;BME280;35423;37.320;-121.762;2022-10-16T06:37:06;99739.67;;;25.55;27.47
49529;BME280;35423;37.320;-121.762;2022-10-16T06:39:31;99737.51;;;24.66;27.58
49529;BME280;35423;37.320;-121.762;2022-10-16T06:42:02;99738.79;;;25.38;27.64
49529;BME280;35423;37.320;-121.762;2022-10-16T06:44:30;99740.69;;;24.95;27.65
49529;BME280;35423;37.320;-121.762;2022-10-16T06:46:55;99738.93;;;25.48;27.61
49529;BME280;35423;37.320;-121.762;2022-10-16T06:49:21;99740.45;;;25.24;27.58
49529;BME280;35423;37.320;-121.762;2022-10-16T06:51:47;99740.56;;;25.21;27.55
49529;BME280;35423;37.320;-121.762;2022-10-16T06:54:15;99745.89;;;25.40;27.64
49529;BME280;35423;37.320;-121.762;2022-10-16T06:56:41;99749.44;;;25.64;27.45
49529;BME280;35423;37.320;-121.762;2022-10-16T06:59:14;99749.06;;;25.33;27.61
49529;BME280;35423;37.320;-121.762;2022-10-16T07:01:41;99751.61;;;25.23;27.28
49529;BME280;35423;37.320;-121.762;2022-10-16T07:04:06;99746.65;;;25.24;27.35
49529;BME280;35423;37.320;-121.762;2022-10-16T07:06:34;99744.90;;;24.51;27.57
49529;BME280;35423;37.320;-121.762;2022-10-16T07:09:03;99745.24;;;25.04;27.79
49529;BME280;35423;37.320;-121.762;2022-10-16T07:11:28;99744.69;;;24.48;27.92
49529;BME280;35423;37.320;-121.762;2022-10-16T07:13:54;99746.35;;;25.04;27.86
49529;BME280;35423;37.320;-121.762;2022-10-16T07:16:26;99747.10;;;24.78;28.08
49529;BME280;35423;37.320;-121.762;2022-10-16T07:18:58;99752.19;;;24.82;28.10
49529;BME280;35423;37.320;-121.762;2022-10-16T07:21:27;99753.77;;;24.77;28.18
49529;BME280;35423;37.320;-121.762;2022-10-16T07:23:52;99753.55;;;25.10;28.32
49529;BME280;35423;37.320;-121.762;2022-10-16T07:26:19;99755.17;;;24.76;28.42
49529;BME280;35423;37.320;-121.762;2022-10-16T07:28:46;99752.59;;;24.60;28.36
49529;BME280;35423;37.320;-121.762;2022-10-16T07:31:23;99750.51;;;25.04;28.39
49529;BME280;35423;37.320;-121.762;2022-10-16T07:33:50;99753.25;;;24.66;28.32
49529;BME280;35423;37.320;-121.762;2022-10-16T07:36:15;99752.52;;;24.88;28.29
49529;BME280;35423;37.320;-121.762;2022-10-16T07:38:41;99754.34;;;24.51;28.39
49529;BME280;35423;37.320;-121.762;2022-10-16T07:41:12;99753.20;;;24.83;28.54
49529;BME280;35423;37.320;-121.762;2022-10-16T07:43:34;99751.17;;;24.60;28.78
49529;BME280;35423;37.320;-121.762;2022-10-16T07:46:03;99753.97;;;24.51;28.93
49529;BME280;35423;37.320;-121.762;2022-10-16T07:48:32;99752.32;;;23.85;28.92
49529;BME280;35423;37.320;-121.762;2022-10-16T07:50:58;99754.92;;;24.02;28.74
49529;BME280;35423;37.320;-121.762;2022-10-16T07:53:32;99754.61;;;24.40;28.59
49529;BME280;35423;37.320;-121.762;2022-10-16T07:55:58;99759.26;;;24.72;28.69
49529;BME280;35423;37.320;-121.762;2022-10-16T07:58:24;99759.11;;;22.82;28.65
49529;BME280;35423;37.320;-121.762;2022-10-16T08:00:49;99761.94;;;24.51;28.38
49529;BME280;35423;37.320;-121.762;2022-10-16T08:03:19;99764.03;;;24.61;28.51
49529;BME280;35423;37.320;-121.762;2022-10-16T08:05:48;99764.88;;;24.35;28.55
49529;BME280;35423;37.320;-121.762;2022-10-16T08:08:18;99770.34;;;24.58;28.74
49529;BME280;35423;37.320;-121.762;2022-10-16T08:10:41;99775.96;;;24.05;28.85
49529;BME280;35423;37.320;-121.762;2022-10-16T08:13:06;99780.49;;;24.47;28.83
49529;BME280;35423;37.320;-121.762;2022-10-16T08:15:45;99786.91;;;24.14;28.89
49529;BME280;35423;37.320;-121.762;2022-10-16T08:18:12;99792.76;;;24.33;28.87
49529;BME280;35423;37.320;-121.762;2022-10-16T08:20:37;99796.33;;;23.84;29.12
49529;BME280;35423;37.320;-121.762;2022-10-16T08:23:02;99803.59;;;24.07;29.19
49529;BME280;35423;37.320;-121.762;2022-10-16T08:25:28;99807.39;;;23.26;29.29
49529;BME280;35423;37.320;-121.762;2022-10-16T08:28:06;99811.06;;;24.19;29.39
49529;BME280;35423;37.320;-121.762;2022-10-16T08:30:34;99809.50;;;23.33;29.47
49529;BME280;35423;37.320;-121.762;2022-10-16T08:33:00;99812.17;;;23.94;29.46
49529;BME280;35423;37.320;-121.762;2022-10-16T08:35:26;99812.77;;;23.22;29.45
49529;BME280;35423;37.320;-121.762;2022-10-16T08:37:51;99813.55;;;23.67;29.45
49529;BME280;35423;37.320;-121.762;2022-10-16T08:40:20;99815.16;;;23.70;29.38
49529;BME280;35423;37.320;-121.762;2022-10-16T08:42:56;99817.79;;;23.70;29.40
49529;BME280;35423;37.320;-121.762;2022-10-16T08:45:18;99821.03;;;24.16;29.41
49529;BME280;35423;37.320;-121.762;2022-10-16T08:47:45;99824.03;;;23.28;29.33
49529;BME280;35423;37.320;-121.762;2022-10-16T08:50:21;99828.43;;;24.14;29.39
49529;BME280;35423;37.320;-121.762;2022-10-16T08:52:46;99825.86;;;23.60;29.44
49529;BME280;35423;37.320;-121.762;2022-10-16T08:55:27;99828.10;;;24.04;29.24
49529;BME280;35423;37.320;-121.762;2022-10-16T08:57:45;99827.96;;;24.07;29.16
49529;BME280;35423;37.320;-121.762;2022-10-16T09:00:21;99829.90;;;24.24;29.17
49529;BME280;35423;37.320;-121.762;2022-10-16T09:02:43;99833.07;;;23.28;29.18
49529;BME280;35423;37.320;-121.762;2022-10-16T09:07:34;99830.77;;;23.30;29.16
49529;BME280;35423;37.320;-121.762;2022-10-16T09:10:08;99834.21;;;23.76;29.12
49529;BME280;35423;37.320;-121.762;2022-10-16T09:12:27;99836.30;;;23.80;29.09
49529;BME280;35423;37.320;-121.762;2022-10-16T09:14:57;99837.96;;;23.95;28.94
49529;BME280;35423;37.320;-121.762;2022-10-16T09:17:27;99839.45;;;24.33;29.03
49529;BME280;35423;37.320;-121.762;2022-10-16T09:19:45;99842.73;;;23.66;29.18
49529;BME280;35423;37.320;-121.762;2022-10-16T09:22:14;99843.15;;;23.99;29.15
49529;BME280;35423;37.320;-121.762;2022-10-16T09:24:36;99844.76;;;23.68;29.18
49529;BME280;35423;37.320;-121.762;2022-10-16T09:27:00;99844.67;;;23.83;29.31
49529;BME280;35423;37.320;-121.762;2022-10-16T09:29:26;99843.94;;;23.13;29.32
49529;BME280;35423;37.320;-121.762;2022-10-16T09:31:52;99842.74;;;23.95;29.23
49529;BME280;35423;37.320;-121.762;2022-10-16T09:34:32;99842.93;;;23.22;29.21
49529;BME280;35423;37.320;-121.762;2022-10-16T09:36:53;99844.40;;;23.92;29.24
49529;BME280;35423;37.320;-121.762;2022-10-16T09:39:24;99845.83;;;23.81;29.34
49529;BME280;35423;37.320;-121.762;2022-10-16T09:41:53;99848.93;;;23.96;29.39
49529;BME280;35423;37.320;-121.762;2022-10-16T09:44:26;99852.46;;;23.69;29.50
49529;BME280;35423;37.320;-121.762;2022-10-16T09:47:00;99856.46;;;23.64;29.54
49529;BME280;35423;37.320;-121.762;2022-10-16T09:49:21;99861.97;;;23.69;29.58
49529;BME280;35423;37.320;-121.762;2022-10-16T09:51:46;99866.24;;;23.36;29.64
49529;BME280;35423;37.320;-121.762;2022-10-16T09:54:16;99870.97;;;23.69;29.78
49529;BME280;35423;37.320;-121.762;2022-10-16T09:56:40;99874.97;;;23.07;29.91
49529;BME280;35423;37.320;-121.762;2022-10-16T09:59:12;99875.13;;;23.14;30.09
49529;BME280;35423;37.320;-121.762;2022-10-16T10:01:45;99876.04;;;22.81;30.20
49529;BME280;35423;37.320;-121.762;2022-10-16T10:04:06;99876.72;;;23.10;30.40
49529;BME280;35423;37.320;-121.762;2022-10-16T10:06:33;99878.10;;;23.00;30.48
49529;BME280;35423;37.320;-121.762;2022-10-16T10:09:03;99874.60;;;22.89;30.65
49529;BME280;35423;37.320;-121.762;2022-10-16T10:13:48;99873.67;;;22.67;31.01
49529;BME280;35423;37.320;-121.762;2022-10-16T10:18:38;99876.93;;;22.06;31.12
49529;BME280;35423;37.320;-121.762;2022-10-16T10:23:34;99875.00;;;22.88;31.03
49529;BME280;35423;37.320;-121.762;2022-10-16T10:26:06;99874.55;;;23.20;30.91
49529;BME280;35423;37.320;-121.762;2022-10-16T10:28:44;99877.36;;;22.76;30.85
49529;BME280;35423;37.320;-121.762;2022-10-16T10:31:02;99876.96;;;22.93;30.92
49529;BME280;35423;37.320;-121.762;2022-10-16T10:33:30;99876.05;;;23.18;30.90
49529;BME280;35423;37.320;-121.762;2022-10-16T10:35:56;99874.58;;;22.65;30.99
49529;BME280;35423;37.320;-121.762;2022-10-16T10:38:28;99873.87;;;23.16;30.95
49529;BME280;35423;37.320;-121.762;2022-10-16T10:40:51;99872.72;;;22.46;30.87
49529;BME280;35423;37.320;-121.762;2022-10-16T10:43:17;99870.61;;;23.06;30.84
49529;BME280;35423;37.320;-121.762;2022-10-16T10:45:46;99871.36;;;22.61;30.78
49529;BME280;35423;37.320;-121.762;2022-10-16T10:48:16;99871.90;;;23.20;30.65
49529;BME280;35423;37.320;-121.762;2022-10-16T10:50:38;99872.56;;;22.72;30.68
49529;BME280;35423;37.320;-121.762;2022-10-16T10:53:01;99870.13;;;23.23;30.58
49529;BME280;35423;37.320;-121.762;2022-10-16T10:55:23;99872.53;;;23.34;30.69
49529;BME280;35423;37.320;-121.762;2022-10-16T10:58:01;99873.73;;;22.83;30.71
49529;BME280;35423;37.320;-121.762;2022-10-16T11:00:21;99877.88;;;23.21;30.76
49529;BME280;35423;37.320;-121.762;2022-10-16T11:02:44;99876.43;;;22.73;30.76
49529;BME280;35423;37.320;-121.762;2022-10-16T11:05:16;99877.63;;;22.99;30.73
49529;BME280;35423;37.320;-121.762;2022-10-16T11:07:36;99873.37;;;22.12;30.81
49529;BME280;35423;37.320;-121.762;2022-10-16T11:10:07;99876.37;;;22.58;30.87
49529;BME280;35423;37.320;-121.762;2022-10-16T11:12:38;99885.03;;;22.96;30.78
49529;BME280;35423;37.320;-121.762;2022-10-16T11:15:03;99890.82;;;22.92;30.81
49529;BME280;35423;37.320;-121.762;2022-10-16T11:17:29;99893.38;;;22.41;30.78
49529;BME280;35423;37.320;-121.762;2022-10-16T11:19:58;99896.09;;;22.88;30.85
49529;BME280;35423;37.320;-121.762;2022-10-16T11:22:24;99898.73;;;22.86;30.80
49529;BME280;35423;37.320;-121.762;2022-10-16T11:24:48;99901.64;;;22.55;30.85
49529;BME280;35423;37.320;-121.762;2022-10-16T11:27:19;99898.99;;;22.81;30.85
49529;BME280;35423;37.320;-121.762;2022-10-16T11:29:47;99898.82;;;22.59;30.77
49529;BME280;35423;37.320;-121.762;2022-10-16T11:32:20;99903.09;;;22.58;30.77
49529;BME280;35423;37.320;-121.762;2022-10-16T11:34:41;99904.46;;;21.93;30.88
49529;BME280;35423;37.320;-121.762;2022-10-16T11:37:11;99906.80;;;22.35;30.95
49529;BME280;35423;37.320;-121.762;2022-10-16T11:39:31;99904.47;;;21.63;30.99
49529;BME280;35423;37.320;-121.762;2022-10-16T11:42:02;99905.55;;;22.38;30.96
49529;BME280;35423;37.320;-121.762;2022-10-16T11:44:36;99905.55;;;22.39;30.96
49529;BME280;35423;37.320;-121.762;2022-10-16T11:47:00;99908.38;;;22.57;31.04
49529;BME280;35423;37.320;-121.762;2022-10-16T11:49:20;99910.33;;;22.76;31.03
49529;BME280;35423;37.320;-121.762;2022-10-16T11:51:45;99912.89;;;22.10;30.95
49529;BME280;35423;37.320;-121.762;2022-10-16T11:54:16;99916.19;;;22.61;30.83
49529;BME280;35423;37.320;-121.762;2022-10-16T11:56:38;99921.23;;;22.14;30.81
49529;BME280;35423;37.320;-121.762;2022-10-16T11:59:03;99923.17;;;22.36;30.82
49529;BME280;35423;37.320;-121.762;2022-10-16T12:01:31;99926.73;;;22.28;30.84
49529;BME280;35423;37.320;-121.762;2022-10-16T12:04:01;99925.61;;;22.86;30.78
49529;BME280;35423;37.320;-121.762;2022-10-16T12:06:27;99927.11;;;22.38;30.73
49529;BME280;35423;37.320;-121.762;2022-10-16T12:08:43;99926.02;;;22.47;30.61
49529;BME280;35423;37.320;-121.762;2022-10-16T12:13:37;99929.16;;;22.46;30.60
49529;BME280;35423;37.320;-121.762;2022-10-16T12:16:06;99933.49;;;22.80;30.55
49529;BME280;35423;37.320;-121.762;2022-10-16T12:18:27;99934.94;;;21.93;30.67
49529;BME280;35423;37.320;-121.762;2022-10-16T12:20:57;99939.05;;;22.95;30.71
49529;BME280;35423;37.320;-121.762;2022-10-16T12:23:24;99941.74;;;22.21;30.76
49529;BME280;35423;37.320;-121.762;2022-10-16T12:25:55;99944.39;;;22.51;30.71
49529;BME280;35423;37.320;-121.762;2022-10-16T12:28:22;99949.42;;;22.49;30.69
49529;BME280;35423;37.320;-121.762;2022-10-16T12:30:52;99950.30;;;22.44;30.74
49529;BME280;35423;37.320;-121.762;2022-10-16T12:33:19;99952.89;;;23.04;30.54
49529;BME280;35423;37.320;-121.762;2022-10-16T12:35:43;99955.49;;;22.21;30.68
49529;BME280;35423;37.320;-121.762;2022-10-16T12:38:14;99957.94;;;22.65;30.72
49529;BME280;35423;37.320;-121.762;2022-10-16T12:40:32;99958.02;;;21.78;30.80
49529;BME280;35423;37.320;-121.762;2022-10-16T12:42:55;99956.64;;;22.46;30.54